createdAt,value
2023-03-04T00:00:25.450Z,4.900000
2023-03-04T00:05:22.931Z,4.953846
2023-03-04T00:10:19.584Z,5.000000
2023-03-04T00:15:23.444Z,5.000000
2023-03-04T00:20:25.939Z,4.990000
2023-03-04T00:25:22.975Z,4.900000
2023-03-04T00:30:22.893Z,4.900000
2023-03-04T00:35:23.584Z,5.000000
2023-03-04T00:40:23.337Z,5.000000
2023-03-04T00:45:29.829Z,5.000000
2023-03-04T00:50:23.343Z,5.000000
2023-03-04T00:55:24.064Z,5.000000
2023-03-04T01:00:23.319Z,5.000000
2023-03-04T01:05:23.250Z,5.000000
2023-03-04T01:10:23.372Z,5.000000
2023-03-04T01:15:24.334Z,5.000000
2023-03-04T01:20:27.444Z,5.000000
2023-03-04T01:25:23.454Z,5.000000
2023-03-04T01:30:23.417Z,5.000000
2023-03-04T01:35:24.998Z,5.045455
2023-03-04T01:40:23.728Z,5.100000
2023-03-04T01:45:19.118Z,5.100000
2023-03-04T01:50:23.913Z,5.100000
2023-03-04T01:55:25.270Z,5.100000
2023-03-04T02:00:23.772Z,5.100000
2023-03-04T02:05:19.463Z,5.191667
2023-03-04T02:10:23.920Z,5.200000
2023-03-04T02:15:25.752Z,5.200000
2023-03-04T02:20:28.862Z,5.225000
2023-03-04T02:25:20.066Z,5.300000
2023-03-04T02:30:23.806Z,5.300000
2023-03-04T02:35:26.380Z,5.300000
2023-03-04T02:40:24.100Z,5.260000
2023-03-04T02:45:20.521Z,5.200000
2023-03-04T02:50:24.098Z,5.200000
2023-03-04T02:55:26.689Z,5.200000
2023-03-04T03:00:24.150Z,5.200000
2023-03-04T03:05:20.820Z,5.200000
2023-03-04T03:10:24.062Z,5.200000
2023-03-04T03:15:24.221Z,5.200000
2023-03-04T03:20:24.119Z,5.200000
2023-03-04T03:25:24.343Z,5.200000
2023-03-04T03:30:24.586Z,5.200000
2023-03-04T03:35:24.243Z,5.200000
2023-03-04T03:40:18.727Z,5.200000
2023-03-04T03:45:24.585Z,5.200000
2023-03-04T03:50:25.052Z,5.122222
2023-03-04T03:55:24.640Z,5.100000
2023-03-04T04:00:19.219Z,5.066667
2023-03-04T04:05:24.629Z,5.000000
2023-03-04T04:10:25.393Z,5.000000
2023-03-04T04:15:28.639Z,5.000000
2023-03-04T04:20:19.561Z,5.000000
2023-03-04T04:25:22.946Z,5.000000
2023-03-04T04:30:26.020Z,5.000000
2023-03-04T04:35:24.638Z,5.000000
2023-03-04T04:40:20.144Z,5.000000
2023-03-04T04:45:23.372Z,5.000000
2023-03-04T04:50:26.443Z,5.000000
2023-03-04T04:55:24.967Z,5.000000
2023-03-04T05:00:20.541Z,5.000000
2023-03-04T05:05:25.024Z,5.000000
2023-03-04T05:10:27.128Z,5.000000
2023-03-04T05:15:25.026Z,5.000000
2023-03-04T05:20:20.937Z,5.000000
2023-03-04T05:25:24.927Z,5.000000
2023-03-04T05:30:27.450Z,5.000000
2023-03-04T05:35:27.848Z,5.041667
2023-03-04T05:40:21.544Z,5.100000
2023-03-04T05:45:25.477Z,5.172727
2023-03-04T05:50:27.898Z,5.260000
2023-03-04T05:55:18.857Z,5.300000
2023-03-04T06:00:22.250Z,5.283333
2023-03-04T06:05:25.673Z,5.200000
2023-03-04T06:10:28.200Z,5.200000
2023-03-04T06:15:19.265Z,5.253846
2023-03-04T06:20:22.392Z,5.358333
2023-03-04T06:25:25.847Z,5.554545
2023-03-04T06:30:25.376Z,5.700000
2023-03-04T06:35:20.094Z,5.800000
2023-03-04T06:40:25.815Z,5.918182
2023-03-04T06:45:26.214Z,6.058333
2023-03-04T06:50:25.810Z,6.190000
2023-03-04T06:55:20.371Z,6.200000
2023-03-04T07:00:25.769Z,6.136364
2023-03-04T07:05:26.830Z,6.066667
2023-03-04T07:10:25.771Z,6.309091
2023-03-04T07:15:20.794Z,6.666667
2023-03-04T07:20:25.969Z,6.981818
2023-03-04T07:25:27.262Z,7.272727
2023-03-04T07:30:25.846Z,7.408333
2023-03-04T07:35:21.549Z,7.558333
2023-03-04T07:40:26.157Z,7.787500
2023-03-04T07:45:27.629Z,8.066667
2023-03-04T07:50:26.168Z,8.155556
2023-03-04T07:55:21.746Z,8.145455
2023-03-04T08:00:26.103Z,8.380000
2023-03-04T08:05:28.347Z,8.691667
2023-03-04T08:10:19.232Z,8.691667
2023-03-04T08:15:22.440Z,8.533333
2023-03-04T08:20:26.390Z,8.366667
2023-03-04T08:25:28.922Z,8.209091
2023-03-04T08:30:19.991Z,8.200000
2023-03-04T08:35:23.136Z,8.272727
2023-03-04T08:40:26.717Z,8.350000
2023-03-04T08:45:29.392Z,8.400000
2023-03-04T08:50:22.380Z,8.400000
2023-03-04T08:55:23.420Z,8.333333
2023-03-04T09:00:38.682Z,8.300000
2023-03-04T09:05:26.588Z,8.300000
2023-03-04T09:10:20.728Z,8.300000
2023-03-04T09:15:26.637Z,8.300000
2023-03-04T09:20:27.016Z,8.300000
2023-03-04T09:25:26.623Z,8.192308
2023-03-04T09:30:21.154Z,8.077778
2023-03-04T09:35:26.595Z,8.000000
2023-03-04T09:40:27.410Z,8.000000
2023-03-04T09:45:26.962Z,7.933333
2023-03-04T09:50:21.642Z,8.000000
2023-03-04T09:55:27.025Z,8.000000
2023-03-04T10:00:27.915Z,7.944444
2023-03-04T10:05:18.886Z,7.983333
2023-03-04T10:10:22.101Z,8.000000
2023-03-04T10:15:26.983Z,8.125000
2023-03-04T10:20:28.606Z,8.200000
2023-03-04T10:25:19.693Z,8.281818
2023-03-04T10:30:22.756Z,8.300000
2023-03-04T10:35:26.125Z,8.372727
2023-03-04T10:40:29.161Z,8.300000
2023-03-04T10:45:20.453Z,8.150000
2023-03-04T10:50:23.253Z,8.036364
2023-03-04T10:55:27.530Z,7.880000
2023-03-04T11:00:29.502Z,7.727273
2023-03-04T11:05:20.477Z,7.600000
2023-03-04T11:10:23.568Z,7.600000
2023-03-04T11:15:27.696Z,7.591667
2023-03-04T11:20:29.907Z,7.500000
2023-03-04T11:25:21.325Z,7.500000
2023-03-04T11:30:27.470Z,7.590909
2023-03-04T11:35:28.014Z,7.684615
2023-03-04T11:40:30.772Z,7.700000
2023-03-04T11:45:29.561Z,7.700000
2023-03-04T11:50:24.976Z,7.700000
2023-03-04T11:55:28.031Z,7.760000
2023-03-04T12:00:19.124Z,7.800000
2023-03-04T12:05:22.631Z,7.800000
2023-03-04T12:10:28.338Z,7.700000
2023-03-04T12:15:28.528Z,7.566667
2023-03-04T12:20:19.536Z,7.500000
2023-03-04T12:25:23.315Z,7.581818
2023-03-04T12:30:27.860Z,7.600000
2023-03-04T12:35:29.105Z,7.690909
2023-03-04T12:40:20.598Z,7.736364
2023-03-04T12:45:23.334Z,7.854545
2023-03-04T12:50:28.431Z,7.860000
2023-03-04T12:55:29.619Z,7.780000
2023-03-04T13:00:20.479Z,7.700000
2023-03-04T13:05:23.711Z,7.700000
2023-03-04T13:10:28.341Z,7.636364
2023-03-04T13:15:29.984Z,7.450000
2023-03-04T13:20:20.961Z,7.318182
2023-03-04T13:25:24.316Z,7.372727
2023-03-04T13:30:28.493Z,7.560000
2023-03-04T13:35:30.663Z,7.718182
2023-03-04T13:40:21.548Z,7.800000
2023-03-04T13:45:24.794Z,7.810000
2023-03-04T13:50:28.758Z,7.911111
2023-03-04T13:55:18.889Z,8.000000
2023-03-04T14:00:22.020Z,7.936364
2023-03-04T14:05:25.122Z,7.720000
2023-03-04T14:10:28.855Z,7.508333
2023-03-04T14:15:19.349Z,7.320000
2023-03-04T14:20:22.557Z,7.158333
2023-03-04T14:25:25.774Z,7.009091
2023-03-04T14:30:41.464Z,6.900000
2023-03-04T14:35:19.943Z,6.900000
2023-03-04T14:40:23.096Z,6.833333
2023-03-04T14:45:26.198Z,6.800000
2023-03-04T14:50:29.306Z,6.800000
2023-03-04T14:55:20.364Z,6.800000
2023-03-04T15:00:23.490Z,6.790909
2023-03-04T15:05:29.417Z,6.700000
2023-03-04T15:10:29.766Z,6.600000
2023-03-04T15:15:20.739Z,6.511111
2023-03-04T15:20:23.924Z,6.500000
2023-03-04T15:25:29.171Z,6.420000
2023-03-04T15:30:30.636Z,6.400000
2023-03-04T15:35:21.716Z,6.363636
2023-03-04T15:40:25.035Z,6.300000
2023-03-04T15:45:29.837Z,6.300000
2023-03-04T15:50:18.946Z,6.300000
2023-03-04T15:55:22.046Z,6.280000
2023-03-04T16:00:25.145Z,6.200000
2023-03-04T16:05:28.336Z,6.200000
2023-03-04T16:10:19.329Z,6.108333
2023-03-04T16:15:22.509Z,6.072727
2023-03-04T16:20:25.613Z,5.991667
2023-03-04T16:25:29.789Z,5.900000
2023-03-04T16:30:20.251Z,5.850000
2023-03-04T16:35:23.382Z,5.800000
2023-03-04T16:40:26.586Z,5.710000
2023-03-04T16:45:29.644Z,5.700000
2023-03-04T16:50:20.618Z,5.620000
2023-03-04T16:55:23.751Z,5.600000
2023-03-04T17:00:26.916Z,5.600000
2023-03-04T17:05:30.137Z,5.600000
2023-03-04T17:10:21.083Z,5.600000
2023-03-04T17:15:24.155Z,5.600000
2023-03-04T17:20:30.295Z,5.600000
2023-03-04T17:25:30.705Z,5.600000
2023-03-04T17:30:21.699Z,5.688889
2023-03-04T17:35:24.825Z,5.688889
2023-03-04T17:40:30.493Z,5.675000
2023-03-04T17:45:18.889Z,5.700000
2023-03-04T17:50:22.100Z,5.700000
2023-03-04T17:55:25.209Z,5.700000
2023-03-04T18:00:30.582Z,5.700000
2023-03-04T18:05:19.432Z,5.700000
2023-03-04T18:10:22.455Z,5.700000
2023-03-04T18:15:25.728Z,5.775000
2023-03-04T18:20:30.838Z,5.800000
2023-03-04T18:25:19.989Z,5.860000
2023-03-04T18:30:23.090Z,5.900000
2023-03-04T18:35:26.278Z,5.900000
2023-03-04T18:40:19.026Z,5.900000
2023-03-04T18:45:20.313Z,5.900000
2023-03-04T18:50:18.969Z,5.900000
2023-03-04T18:55:18.941Z,5.900000
2023-03-04T19:00:19.265Z,5.900000
2023-03-04T19:05:20.898Z,5.900000
2023-03-04T19:10:23.867Z,5.900000
2023-03-04T19:15:27.017Z,5.900000
2023-03-04T19:20:18.968Z,5.900000
2023-03-04T19:25:21.380Z,5.900000
2023-03-04T19:30:18.925Z,5.981818
2023-03-04T19:35:19.074Z,6.120000
2023-03-04T19:40:19.621Z,6.209091
2023-03-04T19:45:21.782Z,6.300000
2023-03-04T19:50:19.619Z,6.300000
2023-03-04T19:55:19.477Z,6.300000
2023-03-04T20:00:21.072Z,6.300000
2023-03-04T20:05:22.254Z,6.300000
2023-03-04T20:10:25.513Z,6.300000
2023-03-04T20:15:19.483Z,6.300000
2023-03-04T20:20:19.487Z,6.315385
2023-03-04T20:25:19.670Z,6.425000
2023-03-04T20:30:19.510Z,6.500000
2023-03-04T20:35:19.567Z,6.600000
2023-03-04T20:40:20.129Z,6.600000
2023-03-04T20:45:19.791Z,6.550000
2023-03-04T20:50:19.845Z,6.427273
2023-03-04T20:55:19.872Z,6.320000
2023-03-04T21:00:20.526Z,6.300000
2023-03-04T21:05:19.960Z,6.390909
2023-03-04T21:10:26.811Z,6.400000
2023-03-04T21:15:19.826Z,6.350000
2023-03-04T21:20:21.006Z,6.300000
2023-03-04T21:25:19.819Z,6.255556
2023-03-04T21:30:20.056Z,6.200000
2023-03-04T21:35:20.003Z,6.140000
2023-03-04T21:40:21.593Z,6.058333
2023-03-04T21:45:24.865Z,5.970000
2023-03-04T21:50:20.207Z,5.900000
2023-03-04T21:55:20.236Z,5.866667
2023-03-04T22:00:21.977Z,5.800000
2023-03-04T22:05:20.399Z,5.800000
2023-03-04T22:10:20.399Z,5.858333
2023-03-04T22:15:20.363Z,5.983333
2023-03-04T22:20:22.408Z,6.145455
2023-03-04T22:25:25.861Z,6.250000
2023-03-04T22:30:20.283Z,6.300000
2023-03-04T22:35:20.357Z,6.354545
2023-03-04T22:40:23.471Z,6.470000
2023-03-04T22:45:20.705Z,6.500000
2023-03-04T22:50:20.764Z,6.500000
2023-03-04T22:55:20.477Z,6.500000
2023-03-04T23:00:23.598Z,6.500000
2023-03-04T23:05:20.683Z,6.500000
2023-03-04T23:10:20.928Z,6.500000
2023-03-04T23:15:20.827Z,6.433333
2023-03-04T23:20:20.720Z,6.400000
2023-03-04T23:25:27.644Z,6.366667
2023-03-04T23:30:20.704Z,6.300000
2023-03-04T23:35:21.613Z,6.225000
2023-03-04T23:40:21.042Z,6.091667
2023-03-04T23:45:21.099Z,5.950000
2023-03-04T23:50:21.179Z,5.830769
2023-03-04T23:55:21.906Z,5.737500
